Portada
METAR-TAF:

METAR-TAF

Aeroports :

Barrancabermeja, Colòmbia

latitud: 07-01N, longitud: 073-48W, altitud: 126 m

Observació

L'informe es va fer fa 39 minuts, a les 11:00 UTC
Vent 2 kt amb direcció variable
Temperatura 26°C
Humitat 100%
Pressió 1008 hPa
Visibilitat: 8000 m
Núvols disperses a una alçada de 1500 ft
boira a les proximitats

METAR: SKEJ 091100Z VRB02KT 8000 VCFG SCT015 26/26 Q1008 RMK A2979

Hora: 06:39 (11:39 UTC)


TAF: manca

Observacions i pronòstics meteorològics de més de 4000 aeroports (METAR i TAF).

Les estacions disponibles són els punts grocs i vermells al mapa.

Posi el ratolí al punt desitjat per veure el nom de l'estació.

Feu clic per veure les observacions i els pronòstics meteorològics.

Per canviar el mapa: feu clic els botons verds amb una creu de color negre per apropar; al botó verd amb un guió per allunyar la imatge; o en les fletxes verdes per a mapes adjacents.


METAR-TAF: